16:18
Airports
Links
Donate
Help keep this website running!
PayPal
Bitcoin
METAR
KCOD 241556Z AUTO 25020G26KT 10SM CLR M06/M17 A2976 RMK AO2 PK WND 26029/1546 SLP133 T10611167 FZRANO
Current Weather Conditions at KCOD
VFR 15:56:00 24-02-18
Automated station, no observer
Altimeter:29.76 hg
Temp:-6.1°c 21°f
Dew point:-16.7°cf
Wind:20 knots, 23 mph, 10 m/s, from 250°
Visibility:10.0 statute miles
(CLR) Clear
Past METAR reports
VFR 14:56:00 24-02-18
Automated station, no observer
Altimeter:29.77 hg
Temp:-6.1°c 21°f
Dew point:-17.2°cf
Wind:15 knots, 17.3 mph, 8 m/s, from 250°
Visibility:10.0 statute miles
(CLR) Clear
KCOD 241456Z AUTO 25015G28KT 10SM CLR M06/M17 A2977 RMK AO2 PK WND 26028/1451 SLP146 T10611172 53004 FZRANO
VFR 13:56:00 24-02-18
Automated station, no observer
Altimeter:29.76 hg
Temp:-6.7°c 21°f
Dew point:-17.2°cf
Wind:12 knots, 13.8 mph, 6 m/s, from 270°
Visibility:10.0 statute miles
(CLR) Clear
KCOD 241356Z AUTO 27012G20KT 10SM CLR M07/M17 A2976 RMK AO2 SLP145 T10671172 FZRANO
VFR 12:56:00 24-02-18
Automated station, no observer
Altimeter:29.75 hg
Temp:-6.7°c 21°f
Dew point:-16.7°cf
Wind:20 knots, 23 mph, 10 m/s, from 250°
Visibility:10.0 statute miles
9500(SCT) Scattered
KCOD 241256Z AUTO 25020G29KT 10SM SCT095 M07/M17 A2975 RMK AO2 PK WND 27033/1209 SLP138 T10671167 FZRANO
VFR 11:56:00 24-02-18
Automated station, no observer
Altimeter:29.75 hg
Temp:-6.7°c 21°f
Dew point:-16.7°cf
Wind:16 knots, 18.4 mph, 8 m/s, from 260°
Visibility:10.0 statute miles
7500(SCT) Scattered
KCOD 241156Z AUTO 26016G27KT 230V320 10SM SCT075 M07/M17 A2975 RMK AO2 PK WND 25034/1118 SNB18E36 SLP137 P0000 60000 T10671167 11056 21067 56009 FZRANO
VFR 10:56:00 24-02-18
Automated station, no observer
Altimeter:29.76 hg
Temp:-6.7°c 21°f
Dew point:-16.1°cf
Wind:16 knots, 18.4 mph, 8 m/s, from 270°
Visibility:10.0 statute miles
(CLR) Clear
KCOD 241056Z AUTO 27016G33KT 10SM CLR M07/M16 A2976 RMK AO2 PK WND 25034/1016 SLP136 T10671161 FZRANO
TAF
KCOD 241124Z 2412/2512 25015G25KT P6SM SCT060 AMD LTD TO CLD VIS AND WIND
Forecast at KCOD
12:00 24-02-18 to 12:00 25-02-18
Wind:15 Knots from 250°
Visibility:6.21 statute miles
6000SCT Scattered